Time;durP1;ratioP1;P1;durP2;ratioP2;P2;SDS_P1;SDS_P2;PMS_P1;PMS_P2;Temp;Humidity;BMP_temperature;BMP_pressure;BME280_temperature;BME280_humidity;BME280_pressure;Samples;Min_cycle;Max_cycle;Signal;HPM_P1;HPM_P2
2021/09/30 00:01:22;;;;;;;1.00;0.95;;;14.10;71.00;;;;;;5061873;28;20033;-85
2021/09/30 00:03:47;;;;;;;0.80;0.80;;;14.10;71.00;;;;;;5056534;28;20087;-84
2021/09/30 00:06:14;;;;;;;0.93;0.90;;;14.10;70.90;;;;;;5042174;28;20060;-84
2021/09/30 00:08:40;;;;;;;1.30;0.70;;;14.10;70.90;;;;;;5055817;28;20032;-84
2021/09/30 00:11:10;;;;;;;0.85;0.85;;;14.10;70.90;;;;;;5048916;28;20025;-84
2021/09/30 00:35:04;;;;;;;0.93;0.80;;;14.00;71.00;;;;;;5054531;28;20297;-84
2021/09/30 00:50:45;;;;;;;0.80;0.80;;;14.00;71.00;;;;;;5047056;28;20033;-84
2021/09/30 01:18:59;;;;;;;1.23;0.80;;;13.90;71.10;;;;;;5056330;28;20036;-83
2021/09/30 01:52:05;;;;;;;1.23;1.00;;;13.80;71.10;;;;;;5051539;28;20025;-83
2021/09/30 02:58:33;;;;;;;1.55;1.27;;;13.60;71.10;;;;;;5057923;28;20116;-83
2021/09/30 03:01:11;;;;;;;2.28;1.30;;;13.60;71.20;;;;;;5062285;28;20037;-83
2021/09/30 03:03:43;;;;;;;2.40;1.80;;;13.50;71.20;;;;;;5061656;28;20044;-84
2021/09/30 03:06:09;;;;;;;1.45;1.33;;;13.60;71.20;;;;;;5047716;28;20063;-84
2021/09/30 03:08:46;;;;;;;2.03;1.40;;;13.50;71.10;;;;;;5049375;28;20060;-84
2021/09/30 03:11:16;;;;;;;2.20;1.60;;;13.50;71.10;;;;;;5051177;28;20051;-86
2021/09/30 03:13:45;;;;;;;1.45;1.17;;;13.50;71.10;;;;;;5044642;28;20076;-84
2021/09/30 03:16:21;;;;;;;1.40;1.25;;;13.50;71.10;;;;;;5043979;28;20123;-84
2021/09/30 03:18:54;;;;;;;1.60;1.48;;;13.50;71.10;;;;;;5043750;28;20032;-82
2021/09/30 03:24:07;;;;;;;2.17;1.40;;;13.50;71.10;;;;;;5043806;28;20042;-83
2021/09/30 03:26:33;;;;;;;1.92;1.42;;;13.50;71.00;;;;;;5049818;28;20477;-83
2021/09/30 03:29:01;;;;;;;2.47;1.40;;;13.50;71.10;;;;;;5024573;28;20052;-83
2021/09/30 03:31:27;;;;;;;2.15;1.30;;;13.40;71.00;;;;;;5044606;28;20025;-84
2021/09/30 03:34:16;;;;;;;1.65;1.30;;;13.50;71.00;;;;;;5052406;28;20049;-84
2021/09/30 03:36:42;;;;;;;2.13;1.50;;;13.40;71.00;;;;;;5047882;28;20081;-84
2021/09/30 03:39:13;;;;;;;1.80;1.40;;;13.40;71.00;;;;;;5019615;28;20040;-85
2021/09/30 03:41:42;;;;;;;2.13;1.40;;;13.50;71.10;;;;;;5042983;28;20466;-84
2021/09/30 03:44:11;;;;;;;2.10;1.50;;;13.50;71.10;;;;;;5039722;28;20032;-83
2021/09/30 03:46:38;;;;;;;1.73;1.33;;;13.40;71.00;;;;;;5044253;28;20021;-83
2021/09/30 03:49:32;;;;;;;3.03;1.48;;;13.40;71.00;;;;;;5039208;28;20060;-83
2021/09/30 03:52:04;;;;;;;1.30;1.20;;;13.40;71.00;;;;;;5052548;28;20036;-84
2021/09/30 03:54:42;;;;;;;1.73;1.13;;;13.40;71.00;;;;;;5051963;28;20025;-84
2021/09/30 03:59:34;;;;;;;1.42;1.33;;;13.40;71.00;;;;;;5035861;28;20504;-82
2021/09/30 04:02:11;;;;;;;1.63;1.42;;;13.40;71.00;;;;;;5067761;28;20120;-80
2021/09/30 04:04:37;;;;;;;2.05;1.35;;;13.40;71.00;;;;;;5072389;28;20099;-79
2021/09/30 04:07:08;;;;;;;1.90;1.25;;;13.30;71.00;;;;;;5074036;28;20028;-80
2021/09/30 04:09:36;;;;;;;2.08;1.35;;;13.30;71.00;;;;;;5043446;28;20043;-80
2021/09/30 04:12:08;;;;;;;2.17;1.35;;;13.40;71.00;;;;;;5052399;28;20393;-80
2021/09/30 04:14:35;;;;;;;3.42;1.27;;;13.30;71.00;;;;;;5042629;28;20127;-80
2021/09/30 04:17:01;;;;;;;2.40;1.45;;;13.30;71.00;;;;;;5026575;28;20393;-80
2021/09/30 04:19:27;;;;;;;1.58;1.10;;;13.30;71.00;;;;;;5039798;28;20037;-80
2021/09/30 04:21:54;;;;;;;2.38;1.45;;;13.30;71.00;;;;;;5039460;28;20040;-80
2021/09/30 04:24:20;;;;;;;1.90;1.40;;;13.30;71.00;;;;;;5039442;28;20567;-81
2021/09/30 04:26:48;;;;;;;2.03;1.50;;;13.30;71.00;;;;;;5039423;28;20036;-80
2021/09/30 04:29:14;;;;;;;2.42;1.63;;;13.20;71.00;;;;;;5057550;28;20087;-80
2021/09/30 04:31:40;;;;;;;2.60;1.40;;;13.30;71.00;;;;;;5052463;28;20034;-81
2021/09/30 04:34:06;;;;;;;1.55;1.38;;;13.30;71.00;;;;;;5044531;28;20431;-80
2021/09/30 04:36:32;;;;;;;2.85;1.40;;;13.20;71.00;;;;;;5034282;28;20637;-80
2021/09/30 04:38:58;;;;;;;1.60;1.20;;;13.20;71.00;;;;;;5034774;28;20028;-80
2021/09/30 04:41:25;;;;;;;1.85;1.30;;;13.20;71.00;;;;;;5051141;28;20045;-80
2021/09/30 04:43:52;;;;;;;1.55;1.33;;;13.20;71.00;;;;;;5056228;28;20060;-81
2021/09/30 04:46:22;;;;;;;1.70;1.27;;;13.20;71.00;;;;;;5050918;28;20068;-82
2021/09/30 04:49:08;;;;;;;1.98;1.30;;;13.20;71.00;;;;;;5040826;28;20800;-81
2021/09/30 04:51:35;;;;;;;2.70;1.52;;;13.20;70.90;;;;;;5056472;28;20502;-80
2021/09/30 04:54:02;;;;;;;2.25;1.33;;;13.20;71.00;;;;;;5046209;28;20124;-81
2021/09/30 04:56:29;;;;;;;1.40;1.20;;;13.20;71.00;;;;;;5060409;28;20064;-81
2021/09/30 04:59:00;;;;;;;1.60;1.30;;;13.20;71.10;;;;;;5081823;28;20042;-85
2021/09/30 05:01:27;;;;;;;1.55;1.40;;;13.20;71.00;;;;;;5033594;28;20037;-79
2021/09/30 05:03:53;;;;;;;1.52;1.20;;;13.10;71.00;;;;;;5041815;28;20036;-81
2021/09/30 05:06:19;;;;;;;2.88;1.55;;;13.10;71.00;;;;;;5050686;28;20380;-82
2021/09/30 05:08:48;;;;;;;1.88;1.30;;;13.10;71.00;;;;;;5030151;28;20041;-81
2021/09/30 05:11:15;;;;;;;1.45;1.30;;;13.10;71.00;;;;;;5050762;28;20025;-83
2021/09/30 05:13:43;;;;;;;2.58;1.50;;;13.10;71.00;;;;;;5044716;28;20555;-79
2021/09/30 05:16:14;;;;;;;1.65;1.25;;;13.10;71.00;;;;;;5038376;28;20029;-82
2021/09/30 05:19:03;;;;;;;2.15;1.50;;;13.10;71.10;;;;;;5056520;28;20032;-80
2021/09/30 05:21:30;;;;;;;2.47;1.40;;;13.10;71.00;;;;;;5030675;28;20086;-81
2021/09/30 05:23:56;;;;;;;2.47;1.63;;;13.10;71.00;;;;;;5054130;28;20021;-80
2021/09/30 05:26:23;;;;;;;3.03;1.70;;;13.00;71.00;;;;;;5049563;28;20025;-81
2021/09/30 05:28:49;;;;;;;2.40;1.27;;;13.10;71.10;;;;;;5033392;28;20075;-82
2021/09/30 05:31:15;;;;;;;3.60;1.60;;;13.10;71.00;;;;;;5034648;28;20025;-80
2021/09/30 05:34:04;;;;;;;1.52;1.30;;;13.10;71.00;;;;;;5054661;28;20131;-82
2021/09/30 05:36:30;;;;;;;2.70;1.48;;;13.00;70.90;;;;;;5050434;28;20121;-78
2021/09/30 05:38:56;;;;;;;1.67;1.50;;;13.00;71.00;;;;;;5047080;28;20060;-78
2021/09/30 05:41:24;;;;;;;2.35;1.50;;;13.00;71.10;;;;;;5062153;28;20433;-79
2021/09/30 05:43:56;;;;;;;2.53;1.50;;;13.00;71.00;;;;;;5041685;28;20037;-77
2021/09/30 05:46:34;;;;;;;2.53;1.50;;;13.00;71.10;;;;;;5048283;28;20037;-81
2021/09/30 05:49:03;;;;;;;2.55;1.58;;;13.00;71.00;;;;;;5056270;28;20033;-78
2021/09/30 05:51:30;;;;;;;2.33;1.58;;;13.00;71.00;;;;;;5047725;28;20033;-78
2021/09/30 05:54:15;;;;;;;3.47;1.70;;;13.00;71.00;;;;;;5060249;28;20101;-80
2021/09/30 05:56:49;;;;;;;2.30;1.70;;;13.00;71.00;;;;;;5054452;28;20043;-78
2021/09/30 05:59:20;;;;;;;3.22;1.50;;;13.00;71.00;;;;;;5044833;28;20029;-77
2021/09/30 06:12:39;;;;;;;2.10;1.60;;;12.90;71.00;;;;;;5058577;28;20033;-79
2021/09/30 06:15:22;;;;;;;2.08;1.40;;;12.90;71.00;;;;;;5062233;28;20102;-79
2021/09/30 06:17:49;;;;;;;1.75;1.27;;;12.90;71.00;;;;;;5037151;28;20119;-79
2021/09/30 06:20:18;;;;;;;2.67;1.60;;;12.90;71.10;;;;;;5032798;28;20033;-79
2021/09/30 06:22:44;;;;;;;1.40;1.20;;;12.90;71.10;;;;;;5048709;28;20036;-79
2021/09/30 06:25:10;;;;;;;3.05;1.67;;;12.90;71.10;;;;;;5063853;28;20462;-79
2021/09/30 06:27:38;;;;;;;2.10;1.40;;;12.90;71.10;;;;;;5053573;28;20017;-79
2021/09/30 06:30:05;;;;;;;1.70;1.45;;;12.80;71.10;;;;;;5070288;28;20469;-79
2021/09/30 06:32:33;;;;;;;2.00;1.42;;;12.90;71.10;;;;;;5037395;28;20055;-79
2021/09/30 06:35:05;;;;;;;1.88;1.50;;;12.80;71.00;;;;;;5033790;28;20061;-81
2021/09/30 06:37:39;;;;;;;2.85;1.77;;;12.80;71.10;;;;;;5049167;28;20086;-80
2021/09/30 06:40:05;;;;;;;1.55;1.27;;;12.80;71.00;;;;;;5041649;28;20037;-80
2021/09/30 06:42:32;;;;;;;3.13;1.70;;;12.80;71.10;;;;;;5052291;28;20432;-81
2021/09/30 06:45:18;;;;;;;2.97;1.55;;;12.80;71.10;;;;;;5054404;28;20433;-81
2021/09/30 06:48:11;;;;;;;2.45;1.50;;;12.80;71.00;;;;;;5048247;28;20052;-81
2021/09/30 06:50:57;;;;;;;1.90;1.55;;;12.80;71.10;;;;;;5054203;28;20049;-82
2021/09/30 06:53:27;;;;;;;2.38;1.50;;;12.80;71.10;;;;;;5037002;28;20029;-82
2021/09/30 06:56:20;;;;;;;2.28;1.52;;;12.80;71.10;;;;;;5057582;28;20037;-81
2021/09/30 06:59:06;;;;;;;1.92;1.50;;;12.80;71.10;;;;;;5028332;28;20044;-81
2021/09/30 07:01:51;;;;;;;2.08;1.40;;;12.80;71.10;;;;;;5036568;28;20064;-81
2021/09/30 07:04:36;;;;;;;2.67;1.55;;;12.80;71.20;;;;;;5061523;28;20047;-81
2021/09/30 07:07:25;;;;;;;2.47;1.45;;;12.80;71.20;;;;;;5038875;28;20045;-81
2021/09/30 07:09:53;;;;;;;2.80;1.60;;;12.80;71.20;;;;;;5028446;28;20127;-81
2021/09/30 07:12:19;;;;;;;1.88;1.52;;;12.80;71.20;;;;;;5034482;28;20128;-81
2021/09/30 07:14:45;;;;;;;1.98;1.38;;;12.80;71.20;;;;;;5056561;28;20482;-81
2021/09/30 07:17:11;;;;;;;2.50;1.50;;;12.80;71.20;;;;;;5053397;28;20029;-81
2021/09/30 07:19:37;;;;;;;2.22;1.35;;;12.80;71.30;;;;;;5050728;28;20063;-81
2021/09/30 07:22:05;;;;;;;2.80;1.48;;;12.80;71.30;;;;;;5055954;28;20021;-81
2021/09/30 07:24:31;;;;;;;2.35;1.50;;;12.80;71.30;;;;;;5056681;28;20119;-82
2021/09/30 07:26:57;;;;;;;2.08;1.60;;;12.80;71.30;;;;;;5065093;28;20473;-80
2021/09/30 07:29:23;;;;;;;2.42;1.33;;;12.90;71.30;;;;;;5062569;28;20017;-81
2021/09/30 07:31:50;;;;;;;2.33;1.42;;;12.90;71.40;;;;;;5061861;28;20037;-83
2021/09/30 07:34:16;;;;;;;2.08;1.50;;;12.90;71.30;;;;;;5052435;28;20045;-81
2021/09/30 07:36:43;;;;;;;1.88;1.45;;;12.80;71.30;;;;;;5044102;28;20032;-81
2021/09/30 07:39:10;;;;;;;2.63;1.70;;;12.90;71.40;;;;;;5061726;28;20051;-79
2021/09/30 07:41:37;;;;;;;1.77;1.30;;;12.90;71.40;;;;;;5060284;28;20060;-79
2021/09/30 07:44:04;;;;;;;1.83;1.38;;;12.90;71.40;;;;;;5041364;28;20075;-79
2021/09/30 07:46:36;;;;;;;3.20;1.45;;;12.90;71.40;;;;;;5062485;28;20047;-80
2021/09/30 07:49:06;;;;;;;2.42;1.40;;;12.90;71.40;;;;;;5053363;28;20017;-81
2021/09/30 07:51:33;;;;;;;2.35;1.50;;;12.90;71.40;;;;;;5053126;28;20025;-79
2021/09/30 07:53:59;;;;;;;1.83;1.50;;;12.90;71.40;;;;;;5069027;28;20079;-79
2021/09/30 07:56:27;;;;;;;1.23;1.13;;;12.90;71.40;;;;;;5043716;28;20097;-79
2021/09/30 07:58:53;;;;;;;1.30;1.20;;;12.90;71.40;;;;;;5043844;28;20029;-79
2021/09/30 08:01:20;;;;;;;1.88;1.20;;;12.90;71.40;;;;;;5060333;28;20021;-80
2021/09/30 08:03:46;;;;;;;2.80;1.38;;;13.00;71.50;;;;;;5061797;28;20045;-79
2021/09/30 08:06:12;;;;;;;2.90;1.45;;;13.00;71.50;;;;;;5052368;28;20107;-79
2021/09/30 08:08:38;;;;;;;2.03;1.40;;;13.00;71.50;;;;;;5051257;28;20033;-79
2021/09/30 08:11:04;;;;;;;3.22;1.40;;;13.00;71.40;;;;;;5062564;28;20485;-78
2021/09/30 08:13:32;;;;;;;1.45;1.20;;;13.00;71.50;;;;;;5062880;28;20033;-79
2021/09/30 08:15:59;;;;;;;1.80;1.33;;;13.00;71.50;;;;;;5046810;28;20029;-79
2021/09/30 08:18:25;;;;;;;1.70;1.25;;;13.00;71.50;;;;;;5068531;28;20029;-79
2021/09/30 08:20:52;;;;;;;1.30;1.17;;;13.00;71.50;;;;;;5027229;28;20103;-80
2021/09/30 08:23:18;;;;;;;1.52;1.30;;;13.00;71.50;;;;;;5042087;28;20478;-79
2021/09/30 08:25:44;;;;;;;2.38;1.55;;;13.00;71.50;;;;;;5043308;28;20028;-79
2021/09/30 08:28:11;;;;;;;1.45;1.02;;;13.10;71.50;;;;;;5051338;28;20029;-79
2021/09/30 08:30:38;;;;;;;1.75;1.38;;;13.10;71.50;;;;;;5052726;28;20040;-80
2021/09/30 08:33:04;;;;;;;1.58;1.30;;;13.10;71.50;;;;;;5052588;28;20028;-79
2021/09/30 08:35:30;;;;;;;1.58;1.13;;;13.10;71.60;;;;;;5034600;28;20110;-79
2021/09/30 08:37:55;;;;;;;1.25;1.10;;;13.20;71.70;;;;;;5062275;28;20204;-80
2021/09/30 08:40:21;;;;;;;1.38;1.10;;;13.10;71.60;;;;;;5064851;28;20608;-80
2021/09/30 08:42:48;;;;;;;1.55;1.27;;;13.10;71.60;;;;;;5040867;28;20025;-79
2021/09/30 08:45:20;;;;;;;2.58;1.33;;;13.20;71.70;;;;;;5046931;28;20052;-80
2021/09/30 08:47:54;;;;;;;1.60;1.20;;;13.20;71.70;;;;;;5059191;28;20036;-80
2021/09/30 08:50:20;;;;;;;1.33;1.10;;;13.20;71.70;;;;;;5028455;28;20021;-80
2021/09/30 08:52:45;;;;;;;2.22;1.30;;;13.20;71.60;;;;;;5059691;28;20031;-80
2021/09/30 08:55:11;;;;;;;2.53;1.35;;;13.30;71.70;;;;;;5059511;28;20025;-81
2021/09/30 08:57:37;;;;;;;1.33;1.23;;;13.30;71.70;;;;;;5059341;28;20090;-82
2021/09/30 09:00:09;;;;;;;1.50;1.30;;;13.40;71.80;;;;;;5053976;28;20469;-82
2021/09/30 09:02:41;;;;;;;1.83;1.20;;;13.40;71.90;;;;;;5063758;28;20037;-82
2021/09/30 09:05:07;;;;;;;1.73;1.20;;;13.40;71.90;;;;;;5060469;28;20025;-81
2021/09/30 09:07:33;;;;;;;1.52;1.27;;;13.40;71.70;;;;;;5052527;28;20381;-82
2021/09/30 09:10:04;;;;;;;1.27;1.10;;;13.50;71.80;;;;;;5058891;28;20115;-82
2021/09/30 09:12:33;;;;;;;1.48;1.35;;;13.50;71.80;;;;;;5034488;28;20025;-82
2021/09/30 09:15:00;;;;;;;2.17;1.30;;;13.60;71.80;;;;;;5041978;28;20060;-80
2021/09/30 09:17:26;;;;;;;1.50;1.13;;;13.60;71.80;;;;;;5055376;28;20036;-82
2021/09/30 09:19:55;;;;;;;1.70;1.20;;;13.60;71.70;;;;;;5037782;28;20037;-82
2021/09/30 09:22:27;;;;;;;2.28;1.60;;;13.60;71.80;;;;;;5055166;28;20103;-83
2021/09/30 09:24:58;;;;;;;1.98;1.45;;;13.70;71.70;;;;;;5046405;28;20033;-82
2021/09/30 09:27:45;;;;;;;2.10;1.40;;;13.80;71.80;;;;;;5062866;28;20037;-82
2021/09/30 09:30:40;;;;;;;2.40;1.40;;;13.80;71.70;;;;;;5064155;28;20079;-79
2021/09/30 09:33:09;;;;;;;1.52;1.27;;;13.80;71.70;;;;;;5062497;28;20044;-81
2021/09/30 09:35:54;;;;;;;1.35;1.13;;;13.90;71.60;;;;;;5062686;28;20108;-82
2021/09/30 09:38:26;;;;;;;2.53;1.10;;;13.90;71.60;;;;;;5064437;28;20027;-82
2021/09/30 09:40:57;;;;;;;1.10;1.00;;;14.00;71.50;;;;;;5062232;28;20025;-82
2021/09/30 09:43:37;;;;;;;1.77;1.17;;;14.00;71.40;;;;;;5039088;28;20417;-82
2021/09/30 09:46:04;;;;;;;2.67;1.30;;;14.10;71.50;;;;;;5061529;28;20037;-82
2021/09/30 09:48:33;;;;;;;1.30;1.20;;;14.10;71.40;;;;;;5046197;28;20056;-82
2021/09/30 09:51:01;;;;;;;1.73;1.15;;;14.20;71.40;;;;;;5058413;28;20479;-82
2021/09/30 09:53:30;;;;;;;1.05;1.00;;;14.20;71.30;;;;;;5066363;28;20061;-82
2021/09/30 09:56:18;;;;;;;1.48;1.20;;;14.30;71.30;;;;;;5062556;28;20025;-84
2021/09/30 09:58:58;;;;;;;1.70;1.00;;;14.30;71.40;;;;;;5063291;28;20083;-86
2021/09/30 10:01:27;;;;;;;1.60;1.20;;;14.40;71.20;;;;;;5049460;28;20437;-82
2021/09/30 10:03:59;;;;;;;1.70;1.10;;;14.50;71.10;;;;;;5072523;28;20036;-82
2021/09/30 10:06:27;;;;;;;1.13;1.00;;;14.50;71.10;;;;;;5062330;28;20078;-82
2021/09/30 10:08:54;;;;;;;1.27;1.05;;;14.50;71.00;;;;;;5038165;28;20444;-83
2021/09/30 10:11:20;;;;;;;1.52;1.13;;;14.60;71.00;;;;;;5065659;28;20435;-82
2021/09/30 10:13:47;;;;;;;1.40;0.90;;;14.60;71.00;;;;;;5041032;28;20137;-83
2021/09/30 10:16:16;;;;;;;2.03;1.20;;;14.70;70.90;;;;;;5040017;28;20032;-81
2021/09/30 10:18:57;;;;;;;1.65;1.00;;;14.70;70.90;;;;;;5065268;28;20025;-82
2021/09/30 10:21:25;;;;;;;1.42;1.00;;;14.80;70.90;;;;;;5038003;28;20488;-81
2021/09/30 10:24:03;;;;;;;2.13;1.10;;;14.90;70.80;;;;;;5029159;28;20100;-80
2021/09/30 10:26:47;;;;;;;0.98;0.95;;;14.90;70.70;;;;;;5055459;28;20033;-80
2021/09/30 10:29:38;;;;;;;1.50;1.10;;;15.00;70.70;;;;;;5063179;28;20107;-83
2021/09/30 10:32:05;;;;;;;1.45;1.00;;;15.00;70.70;;;;;;5052831;28;20473;-83
2021/09/30 10:34:33;;;;;;;1.13;1.02;;;15.10;70.50;;;;;;5061972;28;20056;-80
2021/09/30 10:37:19;;;;;;;1.30;0.95;;;15.20;70.50;;;;;;5053564;28;20044;-80
2021/09/30 10:39:48;;;;;;;1.20;1.10;;;15.20;70.60;;;;;;5046058;28;20029;-83
2021/09/30 10:42:56;;;;;;;1.45;1.02;;;15.30;70.40;;;;;;5060805;28;20037;-82
2021/09/30 10:45:27;;;;;;;1.63;1.10;;;15.30;70.50;;;;;;5012407;28;20040;-82
2021/09/30 10:48:04;;;;;;;1.20;0.90;;;15.40;70.30;;;;;;5059617;28;20048;-82
2021/09/30 10:50:45;;;;;;;1.60;1.00;;;15.40;70.20;;;;;;5054461;28;20027;-82
2021/09/30 10:53:10;;;;;;;2.00;1.23;;;15.50;70.30;;;;;;5062922;28;20028;-80
2021/09/30 10:55:36;;;;;;;2.20;1.00;;;15.50;70.10;;;;;;5053452;28;20029;-80
2021/09/30 10:58:18;;;;;;;1.50;1.05;;;15.60;70.10;;;;;;5032606;28;20034;-80
2021/09/30 11:00:46;;;;;;;1.52;1.10;;;15.60;70.00;;;;;;5051388;28;20537;-79
2021/09/30 11:03:13;;;;;;;2.08;0.95;;;15.70;70.00;;;;;;5060427;28;20107;-80
2021/09/30 11:05:44;;;;;;;1.50;1.10;;;15.70;70.00;;;;;;5052978;28;20186;-81
2021/09/30 11:08:27;;;;;;;1.20;1.10;;;15.80;70.00;;;;;;5048026;28;20115;-80
2021/09/30 11:11:04;;;;;;;0.80;0.77;;;15.80;70.10;;;;;;5030705;28;20032;-80
2021/09/30 11:13:40;;;;;;;2.08;1.00;;;15.90;70.20;;;;;;5053896;28;20036;-80
2021/09/30 11:16:18;;;;;;;2.15;0.90;;;15.90;70.10;;;;;;5054146;28;20033;-80
2021/09/30 11:18:57;;;;;;;2.75;1.00;;;15.90;70.10;;;;;;5064503;28;20028;-81
2021/09/30 11:21:32;;;;;;;1.30;0.90;;;16.00;70.20;;;;;;5044054;28;20111;-82
2021/09/30 11:24:01;;;;;;;;;;;16.00;70.70;;;;;;5060764;28;20162;-80
2021/09/30 11:26:28;;;;;;;1.55;1.05;;;16.10;70.00;;;;;;5060676;28;19908;-81
2021/09/30 11:29:15;;;;;;;1.25;0.80;;;16.10;69.90;;;;;;5052595;28;20418;-82
2021/09/30 11:31:41;;;;;;;1.02;0.80;;;16.10;70.00;;;;;;5041004;28;20079;-80
2021/09/30 11:34:18;;;;;;;1.55;0.93;;;16.10;70.00;;;;;;5057276;28;20413;-80
2021/09/30 11:36:44;;;;;;;0.80;0.80;;;16.20;70.10;;;;;;5036600;28;20041;-82
2021/09/30 11:39:10;;;;;;;1.67;0.98;;;16.20;70.00;;;;;;5059652;28;20116;-81
2021/09/30 11:41:38;;;;;;;1.90;1.00;;;16.20;69.90;;;;;;5061768;28;20041;-80
2021/09/30 11:44:05;;;;;;;1.58;1.15;;;16.30;69.90;;;;;;5060876;28;20036;-82
2021/09/30 11:46:38;;;;;;;1.25;1.00;;;16.30;69.90;;;;;;5054105;28;20103;-81
2021/09/30 11:49:06;;;;;;;1.00;0.90;;;16.40;69.90;;;;;;5063571;28;20025;-81
2021/09/30 11:51:44;;;;;;;1.55;0.80;;;16.40;69.80;;;;;;5063101;28;20067;-81
2021/09/30 11:54:12;;;;;;;1.45;0.98;;;16.40;69.90;;;;;;5061850;28;20032;-81
2021/09/30 11:56:40;;;;;;;1.88;0.90;;;16.50;69.80;;;;;;5060400;28;20020;-81
2021/09/30 11:59:07;;;;;;;1.00;0.90;;;16.50;69.80;;;;;;5023066;28;20465;-81
2021/09/30 12:01:42;;;;;;;3.05;0.90;;;16.60;69.80;;;;;;5039677;28;20033;-81
2021/09/30 12:04:09;;;;;;;2.28;0.98;;;16.60;69.80;;;;;;5048566;28;20029;-81
2021/09/30 12:06:42;;;;;;;1.52;0.90;;;16.60;69.60;;;;;;5055692;28;20082;-81
2021/09/30 12:09:10;;;;;;;1.98;1.00;;;16.70;69.70;;;;;;5059556;28;20110;-81
2021/09/30 12:11:40;;;;;;;1.45;0.90;;;16.70;69.60;;;;;;5052077;28;20055;-81
2021/09/30 12:14:08;;;;;;;2.38;0.90;;;16.70;69.60;;;;;;5059303;28;20055;-80
2021/09/30 12:16:56;;;;;;;1.70;1.15;;;16.80;69.60;;;;;;5061266;28;20110;-80
2021/09/30 12:19:36;;;;;;;1.10;0.82;;;16.80;69.70;;;;;;5053056;28;20036;-80
2021/09/30 12:22:07;;;;;;;0.93;0.70;;;16.80;69.50;;;;;;5059838;28;20028;-81
2021/09/30 12:24:33;;;;;;;1.88;0.88;;;16.90;69.50;;;;;;5039463;28;20400;-81
2021/09/30 12:26:59;;;;;;;0.98;0.85;;;16.90;69.40;;;;;;5045915;28;20028;-82
2021/09/30 12:29:25;;;;;;;0.95;0.60;;;17.00;69.50;;;;;;5051318;28;20683;-80
2021/09/30 12:32:09;;;;;;;2.10;0.88;;;16.90;69.40;;;;;;5050942;28;20072;-80
2021/09/30 12:34:35;;;;;;;2.22;0.95;;;17.00;69.50;;;;;;5059430;28;20033;-80
2021/09/30 12:37:01;;;;;;;0.77;0.77;;;17.00;69.20;;;;;;5034927;28;20032;-80
2021/09/30 12:39:29;;;;;;;1.50;1.00;;;17.10;69.30;;;;;;5059540;28;20120;-81
2021/09/30 12:42:14;;;;;;;0.90;0.80;;;17.00;69.90;;;;;;5060954;28;20021;-81
2021/09/30 12:44:43;;;;;;;2.08;0.90;;;17.10;69.30;;;;;;5036951;28;20466;-82
2021/09/30 12:47:26;;;;;;;0.80;0.77;;;17.10;69.10;;;;;;5046827;28;20071;-81
2021/09/30 12:50:21;;;;;;;1.15;0.68;;;17.10;69.00;;;;;;5059757;28;20385;-81
2021/09/30 12:53:01;;;;;;;1.20;0.75;;;17.20;69.20;;;;;;5036440;28;20059;-80
2021/09/30 12:55:28;;;;;;;1.77;1.00;;;17.30;69.00;;;;;;5062499;28;20508;-81
2021/09/30 12:57:54;;;;;;;0.88;0.70;;;17.20;69.50;;;;;;5043353;28;20036;-80
2021/09/30 13:00:21;;;;;;;0.88;0.73;;;17.30;68.90;;;;;;5050687;28;20029;-81
2021/09/30 13:02:48;;;;;;;1.15;0.80;;;17.30;68.80;;;;;;5059803;28;20036;-81
2021/09/30 13:05:17;;;;;;;0.88;0.80;;;17.30;68.80;;;;;;5045226;28;20447;-81
2021/09/30 13:07:57;;;;;;;1.08;0.73;;;17.40;68.80;;;;;;5045356;28;20528;-81
2021/09/30 13:10:34;;;;;;;1.05;0.90;;;17.40;68.80;;;;;;5043650;28;20029;-81
2021/09/30 13:13:04;;;;;;;1.23;0.73;;;17.40;68.80;;;;;;5058981;28;20119;-81
2021/09/30 13:15:43;;;;;;;1.30;0.95;;;17.40;68.70;;;;;;5058956;28;20094;-80
2021/09/30 13:18:14;;;;;;;1.55;0.70;;;17.50;68.80;;;;;;5050340;28;20040;-81
2021/09/30 13:20:44;;;;;;;0.63;0.60;;;17.50;68.70;;;;;;5042621;28;20024;-81
2021/09/30 13:23:11;;;;;;;0.70;0.70;;;17.50;68.70;;;;;;5041692;28;20079;-81
2021/09/30 13:25:37;;;;;;;0.90;0.80;;;17.60;68.70;;;;;;5025460;28;20047;-81
2021/09/30 13:28:03;;;;;;;1.13;0.80;;;17.60;68.60;;;;;;5025536;28;20033;-81
2021/09/30 13:30:32;;;;;;;1.15;0.80;;;17.60;68.60;;;;;;5041194;28;20401;-81
2021/09/30 13:33:00;;;;;;;0.82;0.82;;;17.60;68.60;;;;;;5034248;28;20023;-81
2021/09/30 13:35:29;;;;;;;1.58;0.85;;;17.60;68.50;;;;;;5058430;28;20044;-81
2021/09/30 13:37:55;;;;;;;1.38;0.73;;;17.70;68.50;;;;;;5017830;28;20097;-81
2021/09/30 13:40:22;;;;;;;1.20;0.75;;;17.70;68.40;;;;;;5050300;28;20052;-80
2021/09/30 13:42:48;;;;;;;2.33;1.00;;;17.70;68.30;;;;;;5042350;28;20029;-81
2021/09/30 13:45:16;;;;;;;1.48;0.90;;;17.70;68.10;;;;;;5058741;28;20090;-81
2021/09/30 13:47:42;;;;;;;2.30;0.80;;;17.80;68.10;;;;;;5043885;28;20501;-81
2021/09/30 13:50:14;;;;;;;0.75;0.68;;;17.80;68.00;;;;;;5044977;28;20064;-82
2021/09/30 13:52:41;;;;;;;1.55;0.75;;;17.80;67.90;;;;;;5041835;28;20071;-80
2021/09/30 13:55:08;;;;;;;1.02;0.73;;;17.80;67.80;;;;;;5042157;28;20037;-83
2021/09/30 13:57:34;;;;;;;1.38;0.90;;;17.80;67.80;;;;;;5041612;28;20033;-81
2021/09/30 14:00:04;;;;;;;1.73;0.90;;;17.80;67.70;;;;;;5017396;28;20128;-80
2021/09/30 14:02:31;;;;;;;1.48;0.70;;;17.80;67.70;;;;;;5057773;28;20037;-81
2021/09/30 14:04:57;;;;;;;1.00;0.63;;;17.90;67.70;;;;;;5026947;28;20060;-80
2021/09/30 14:07:23;;;;;;;1.50;0.85;;;17.90;67.60;;;;;;5043275;28;20068;-80
2021/09/30 14:09:48;;;;;;;1.30;0.90;;;17.90;67.60;;;;;;5063662;28;20382;-81
2021/09/30 14:12:15;;;;;;;2.53;1.00;;;17.90;67.60;;;;;;5046544;28;20397;-81
2021/09/30 14:14:41;;;;;;;1.48;0.90;;;17.90;67.60;;;;;;5045299;28;20099;-81
2021/09/30 14:17:06;;;;;;;2.85;0.90;;;17.90;67.50;;;;;;5053766;28;20037;-80
2021/09/30 14:19:32;;;;;;;1.10;0.82;;;17.90;67.50;;;;;;5061978;28;20021;-80
2021/09/30 14:21:58;;;;;;;1.08;0.77;;;18.00;67.50;;;;;;5053758;28;20021;-81
2021/09/30 14:24:25;;;;;;;0.98;0.80;;;17.90;67.50;;;;;;5056338;28;20779;-81
2021/09/30 14:26:51;;;;;;;1.08;0.93;;;18.00;67.50;;;;;;5048641;28;20512;-80
2021/09/30 14:29:16;;;;;;;1.13;0.90;;;18.00;67.50;;;;;;5019486;28;20033;-80
2021/09/30 14:31:44;;;;;;;1.48;1.15;;;18.00;67.50;;;;;;5037373;28;20385;-82
2021/09/30 14:34:10;;;;;;;2.00;1.10;;;18.00;67.50;;;;;;5061658;28;20048;-80
2021/09/30 14:36:35;;;;;;;2.17;0.85;;;18.00;67.40;;;;;;5053843;28;20091;-81
2021/09/30 14:39:03;;;;;;;3.40;0.88;;;18.00;67.40;;;;;;5043007;28;20037;-82
2021/09/30 14:41:29;;;;;;;1.23;0.80;;;18.00;67.40;;;;;;5064553;28;20025;-81
2021/09/30 14:43:54;;;;;;;1.30;0.90;;;18.00;67.40;;;;;;5053247;28;20063;-80
2021/09/30 14:46:20;;;;;;;1.38;0.80;;;18.00;67.40;;;;;;5053044;28;20032;-80
2021/09/30 14:48:46;;;;;;;0.77;0.77;;;18.00;67.30;;;;;;5044789;28;20485;-80
2021/09/30 14:51:14;;;;;;;1.38;0.80;;;18.00;67.30;;;;;;5063107;28;20031;-80
2021/09/30 14:53:40;;;;;;;2.30;1.10;;;18.00;67.30;;;;;;5061763;28;20033;-80
2021/09/30 14:56:07;;;;;;;1.55;1.00;;;18.00;67.20;;;;;;5065776;28;20091;-81
2021/09/30 14:58:35;;;;;;;1.48;1.00;;;18.00;67.30;;;;;;5048956;28;20029;-80
2021/09/30 15:01:02;;;;;;;0.95;0.80;;;18.00;67.80;;;;;;5053662;28;20028;-80
2021/09/30 15:03:28;;;;;;;2.22;1.00;;;18.00;67.20;;;;;;5035893;28;20397;-80
2021/09/30 15:05:54;;;;;;;1.95;1.00;;;18.00;67.20;;;;;;5061927;28;20036;-82
2021/09/30 15:08:19;;;;;;;2.00;1.10;;;18.00;67.10;;;;;;5065566;28;20033;-81
2021/09/30 15:10:45;;;;;;;1.58;1.00;;;18.10;67.20;;;;;;5040397;28;20047;-80
2021/09/30 15:13:11;;;;;;;1.30;1.05;;;18.00;67.10;;;;;;5051742;28;20151;-81
2021/09/30 15:15:37;;;;;;;2.20;0.98;;;18.10;67.10;;;;;;5054900;28;20065;-81
2021/09/30 15:18:07;;;;;;;2.22;1.02;;;18.10;67.10;;;;;;5066605;28;20040;-81
2021/09/30 15:23:03;;;;;;;1.85;1.10;;;18.10;67.10;;;;;;5060800;28;20032;-80
2021/09/30 15:25:29;;;;;;;2.33;1.10;;;18.10;67.10;;;;;;5045499;28;20420;-80
2021/09/30 15:27:56;;;;;;;1.65;0.80;;;18.10;67.10;;;;;;5052684;28;20078;-81
2021/09/30 15:30:23;;;;;;;1.75;0.90;;;18.10;67.00;;;;;;5045377;28;20036;-81
2021/09/30 15:32:50;;;;;;;1.27;0.90;;;18.10;67.10;;;;;;5052798;28;20465;-81
2021/09/30 15:35:16;;;;;;;1.83;0.82;;;18.10;67.00;;;;;;5044043;28;20056;-82
2021/09/30 15:37:41;;;;;;;1.00;0.90;;;18.10;67.00;;;;;;5030261;28;20028;-81
2021/09/30 15:40:08;;;;;;;2.47;1.20;;;18.10;66.90;;;;;;5030764;28;20039;-80
2021/09/30 15:42:34;;;;;;;2.35;1.13;;;18.10;66.90;;;;;;5028703;28;20025;-80
2021/09/30 15:44:59;;;;;;;1.58;0.90;;;18.10;66.90;;;;;;5065276;28;20032;-81
2021/09/30 15:47:26;;;;;;;1.10;0.80;;;18.10;66.90;;;;;;5047278;28;20436;-81
2021/09/30 15:49:52;;;;;;;1.60;0.90;;;18.10;66.90;;;;;;5035907;28;20032;-80
2021/09/30 15:52:18;;;;;;;2.55;1.10;;;18.10;66.80;;;;;;5053642;28;20032;-81
2021/09/30 15:54:45;;;;;;;1.33;0.90;;;18.10;66.80;;;;;;5044691;28;20049;-81
2021/09/30 15:57:12;;;;;;;1.15;0.88;;;18.10;66.80;;;;;;5046857;28;20021;-82